sensor_id;sensor_type;location;lat;lon;timestamp;P1;durP1;ratioP1;P2;durP2;ratioP2
53299;SDS011;39187;48.476;8.310;2023-03-19T00:02:16;1.37;;;1.27;;
53299;SDS011;39187;48.476;8.310;2023-03-19T00:04:41;1.70;;;1.60;;
53299;SDS011;39187;48.476;8.310;2023-03-19T00:07:07;1.80;;;1.70;;
53299;SDS011;39187;48.476;8.310;2023-03-19T00:09:32;1.80;;;1.70;;
53299;SDS011;39187;48.476;8.310;2023-03-19T00:11:58;1.70;;;1.57;;
53299;SDS011;39187;48.476;8.310;2023-03-19T00:14:24;3.20;;;1.43;;
53299;SDS011;39187;48.476;8.310;2023-03-19T00:16:49;2.00;;;1.90;;
53299;SDS011;39187;48.476;8.310;2023-03-19T00:19:15;1.67;;;1.57;;
53299;SDS011;39187;48.476;8.310;2023-03-19T00:21:40;1.70;;;1.60;;
53299;SDS011;39187;48.476;8.310;2023-03-19T00:24:06;1.97;;;1.87;;
53299;SDS011;39187;48.476;8.310;2023-03-19T00:26:32;1.67;;;1.57;;
53299;SDS011;39187;48.476;8.310;2023-03-19T00:28:59;1.63;;;1.53;;
53299;SDS011;39187;48.476;8.310;2023-03-19T00:31:25;3.90;;;2.13;;
53299;SDS011;39187;48.476;8.310;2023-03-19T00:33:52;1.73;;;1.63;;
53299;SDS011;39187;48.476;8.310;2023-03-19T00:36:18;1.97;;;1.53;;
53299;SDS011;39187;48.476;8.310;2023-03-19T00:38:44;1.87;;;1.73;;
53299;SDS011;39187;48.476;8.310;2023-03-19T00:41:10;4.70;;;1.73;;
53299;SDS011;39187;48.476;8.310;2023-03-19T00:43:37;2.53;;;1.33;;
53299;SDS011;39187;48.476;8.310;2023-03-19T00:46:03;2.20;;;2.10;;
53299;SDS011;39187;48.476;8.310;2023-03-19T00:48:28;3.50;;;2.30;;
53299;SDS011;39187;48.476;8.310;2023-03-19T00:50:54;2.30;;;2.10;;
53299;SDS011;39187;48.476;8.310;2023-03-19T00:53:20;4.20;;;2.83;;
53299;SDS011;39187;48.476;8.310;2023-03-19T00:55:45;5.10;;;2.40;;
53299;SDS011;39187;48.476;8.310;2023-03-19T00:58:11;2.50;;;2.40;;
53299;SDS011;39187;48.476;8.310;2023-03-19T01:00:37;2.27;;;2.17;;
53299;SDS011;39187;48.476;8.310;2023-03-19T01:03:03;2.47;;;2.17;;
53299;SDS011;39187;48.476;8.310;2023-03-19T01:05:29;2.10;;;2.00;;
53299;SDS011;39187;48.476;8.310;2023-03-19T01:07:55;2.03;;;1.93;;
53299;SDS011;39187;48.476;8.310;2023-03-19T01:10:22;4.90;;;2.77;;
53299;SDS011;39187;48.476;8.310;2023-03-19T01:12:49;2.10;;;2.00;;
53299;SDS011;39187;48.476;8.310;2023-03-19T01:15:15;2.30;;;2.20;;
53299;SDS011;39187;48.476;8.310;2023-03-19T01:17:41;2.80;;;2.60;;
53299;SDS011;39187;48.476;8.310;2023-03-19T01:20:07;7.00;;;2.30;;
53299;SDS011;39187;48.476;8.310;2023-03-19T01:22:39;2.70;;;2.47;;
53299;SDS011;39187;48.476;8.310;2023-03-19T01:25:06;2.80;;;1.90;;
53299;SDS011;39187;48.476;8.310;2023-03-19T01:27:33;2.33;;;2.23;;
53299;SDS011;39187;48.476;8.310;2023-03-19T01:29:58;1.93;;;1.70;;
53299;SDS011;39187;48.476;8.310;2023-03-19T01:32:24;2.37;;;2.27;;
53299;SDS011;39187;48.476;8.310;2023-03-19T01:34:50;4.20;;;2.57;;
53299;SDS011;39187;48.476;8.310;2023-03-19T01:37:17;2.60;;;2.40;;
53299;SDS011;39187;48.476;8.310;2023-03-19T01:39:43;3.73;;;3.40;;
53299;SDS011;39187;48.476;8.310;2023-03-19T01:42:09;3.80;;;3.60;;
53299;SDS011;39187;48.476;8.310;2023-03-19T01:44:36;3.03;;;2.83;;
53299;SDS011;39187;48.476;8.310;2023-03-19T01:49:52;1.90;;;1.80;;
53299;SDS011;39187;48.476;8.310;2023-03-19T01:52:19;3.00;;;1.73;;
53299;SDS011;39187;48.476;8.310;2023-03-19T01:54:46;2.47;;;2.27;;
53299;SDS011;39187;48.476;8.310;2023-03-19T01:57:13;3.00;;;2.00;;
53299;SDS011;39187;48.476;8.310;2023-03-19T01:59:47;2.53;;;2.13;;
53299;SDS011;39187;48.476;8.310;2023-03-19T02:02:29;2.97;;;2.40;;
53299;SDS011;39187;48.476;8.310;2023-03-19T02:05:18;2.63;;;2.43;;
53299;SDS011;39187;48.476;8.310;2023-03-19T02:07:49;2.50;;;2.30;;
53299;SDS011;39187;48.476;8.310;2023-03-19T02:10:18;1.80;;;1.70;;
53299;SDS011;39187;48.476;8.310;2023-03-19T02:12:46;2.57;;;2.40;;
53299;SDS011;39187;48.476;8.310;2023-03-19T02:15:12;3.97;;;2.13;;
53299;SDS011;39187;48.476;8.310;2023-03-19T02:17:38;3.30;;;1.80;;
53299;SDS011;39187;48.476;8.310;2023-03-19T02:22:38;2.43;;;2.33;;
53299;SDS011;39187;48.476;8.310;2023-03-19T02:25:12;2.47;;;2.37;;
53299;SDS011;39187;48.476;8.310;2023-03-19T02:27:43;4.30;;;2.27;;
53299;SDS011;39187;48.476;8.310;2023-03-19T02:30:28;2.20;;;2.10;;
53299;SDS011;39187;48.476;8.310;2023-03-19T02:32:56;3.93;;;1.90;;
53299;SDS011;39187;48.476;8.310;2023-03-19T02:35:22;4.57;;;2.80;;
53299;SDS011;39187;48.476;8.310;2023-03-19T02:37:47;2.50;;;2.30;;
53299;SDS011;39187;48.476;8.310;2023-03-19T02:40:21;3.00;;;2.77;;
53299;SDS011;39187;48.476;8.310;2023-03-19T02:42:55;2.13;;;1.93;;
53299;SDS011;39187;48.476;8.310;2023-03-19T02:45:20;3.43;;;2.27;;
53299;SDS011;39187;48.476;8.310;2023-03-19T02:47:51;2.50;;;2.40;;
53299;SDS011;39187;48.476;8.310;2023-03-19T02:50:17;2.97;;;2.67;;
53299;SDS011;39187;48.476;8.310;2023-03-19T02:52:42;2.33;;;2.20;;
53299;SDS011;39187;48.476;8.310;2023-03-19T02:55:08;2.77;;;2.10;;
53299;SDS011;39187;48.476;8.310;2023-03-19T02:57:34;2.70;;;2.43;;
53299;SDS011;39187;48.476;8.310;2023-03-19T02:59:59;2.33;;;2.23;;
53299;SDS011;39187;48.476;8.310;2023-03-19T03:02:25;4.40;;;2.67;;
53299;SDS011;39187;48.476;8.310;2023-03-19T03:04:51;2.93;;;2.60;;
53299;SDS011;39187;48.476;8.310;2023-03-19T03:07:16;3.30;;;2.07;;
53299;SDS011;39187;48.476;8.310;2023-03-19T03:09:42;1.60;;;1.50;;
53299;SDS011;39187;48.476;8.310;2023-03-19T03:12:07;5.53;;;2.10;;
53299;SDS011;39187;48.476;8.310;2023-03-19T03:14:33;1.70;;;1.47;;
53299;SDS011;39187;48.476;8.310;2023-03-19T03:17:00;1.60;;;1.50;;
53299;SDS011;39187;48.476;8.310;2023-03-19T03:19:25;2.00;;;1.90;;
53299;SDS011;39187;48.476;8.310;2023-03-19T03:21:51;2.50;;;1.60;;
53299;SDS011;39187;48.476;8.310;2023-03-19T03:24:17;5.00;;;2.10;;
53299;SDS011;39187;48.476;8.310;2023-03-19T03:26:43;2.07;;;1.97;;
53299;SDS011;39187;48.476;8.310;2023-03-19T03:29:09;1.70;;;1.60;;
53299;SDS011;39187;48.476;8.310;2023-03-19T03:31:35;1.60;;;1.50;;
53299;SDS011;39187;48.476;8.310;2023-03-19T03:34:00;1.73;;;1.63;;
53299;SDS011;39187;48.476;8.310;2023-03-19T03:36:26;1.40;;;1.30;;
53299;SDS011;39187;48.476;8.310;2023-03-19T03:38:53;2.83;;;2.57;;
53299;SDS011;39187;48.476;8.310;2023-03-19T03:41:18;1.67;;;1.57;;
53299;SDS011;39187;48.476;8.310;2023-03-19T03:43:45;2.33;;;1.47;;
53299;SDS011;39187;48.476;8.310;2023-03-19T03:46:10;1.93;;;1.30;;
53299;SDS011;39187;48.476;8.310;2023-03-19T03:48:36;2.17;;;1.97;;
53299;SDS011;39187;48.476;8.310;2023-03-19T03:51:02;3.63;;;1.50;;
53299;SDS011;39187;48.476;8.310;2023-03-19T03:53:28;2.57;;;1.50;;
53299;SDS011;39187;48.476;8.310;2023-03-19T03:55:54;1.60;;;1.50;;
53299;SDS011;39187;48.476;8.310;2023-03-19T03:58:19;1.90;;;1.80;;
53299;SDS011;39187;48.476;8.310;2023-03-19T04:00:45;1.60;;;1.40;;
53299;SDS011;39187;48.476;8.310;2023-03-19T04:03:12;1.53;;;1.43;;
53299;SDS011;39187;48.476;8.310;2023-03-19T04:05:37;2.90;;;1.70;;
53299;SDS011;39187;48.476;8.310;2023-03-19T04:08:03;2.40;;;1.50;;
53299;SDS011;39187;48.476;8.310;2023-03-19T04:10:29;5.37;;;4.13;;
53299;SDS011;39187;48.476;8.310;2023-03-19T04:12:55;3.27;;;2.73;;
53299;SDS011;39187;48.476;8.310;2023-03-19T04:15:20;1.63;;;1.50;;
53299;SDS011;39187;48.476;8.310;2023-03-19T04:17:46;2.10;;;1.83;;
53299;SDS011;39187;48.476;8.310;2023-03-19T04:20:12;2.70;;;2.30;;
53299;SDS011;39187;48.476;8.310;2023-03-19T04:22:40;5.70;;;2.47;;
53299;SDS011;39187;48.476;8.310;2023-03-19T04:25:06;3.10;;;2.20;;
53299;SDS011;39187;48.476;8.310;2023-03-19T04:27:34;4.20;;;3.40;;
53299;SDS011;39187;48.476;8.310;2023-03-19T04:30:00;6.17;;;2.43;;
53299;SDS011;39187;48.476;8.310;2023-03-19T04:32:26;2.17;;;1.97;;
53299;SDS011;39187;48.476;8.310;2023-03-19T04:34:52;4.43;;;1.80;;
53299;SDS011;39187;48.476;8.310;2023-03-19T04:37:17;2.10;;;1.90;;
53299;SDS011;39187;48.476;8.310;2023-03-19T04:39:43;3.07;;;1.50;;
53299;SDS011;39187;48.476;8.310;2023-03-19T04:42:08;3.17;;;1.77;;
53299;SDS011;39187;48.476;8.310;2023-03-19T04:44:35;3.73;;;2.17;;
53299;SDS011;39187;48.476;8.310;2023-03-19T04:47:02;2.77;;;2.67;;
53299;SDS011;39187;48.476;8.310;2023-03-19T04:49:28;2.23;;;2.00;;
53299;SDS011;39187;48.476;8.310;2023-03-19T04:51:55;1.90;;;1.80;;
53299;SDS011;39187;48.476;8.310;2023-03-19T04:54:22;2.60;;;1.63;;
53299;SDS011;39187;48.476;8.310;2023-03-19T04:56:48;2.80;;;2.70;;
53299;SDS011;39187;48.476;8.310;2023-03-19T04:59:14;3.50;;;2.37;;
53299;SDS011;39187;48.476;8.310;2023-03-19T05:01:40;12.23;;;1.90;;
53299;SDS011;39187;48.476;8.310;2023-03-19T05:04:06;2.03;;;1.93;;
53299;SDS011;39187;48.476;8.310;2023-03-19T05:06:32;3.80;;;2.30;;
53299;SDS011;39187;48.476;8.310;2023-03-19T05:08:57;7.13;;;2.70;;
53299;SDS011;39187;48.476;8.310;2023-03-19T05:11:23;5.07;;;3.60;;
53299;SDS011;39187;48.476;8.310;2023-03-19T05:13:49;3.20;;;2.30;;
53299;SDS011;39187;48.476;8.310;2023-03-19T05:16:14;2.83;;;2.63;;
53299;SDS011;39187;48.476;8.310;2023-03-19T05:18:40;3.73;;;2.53;;
53299;SDS011;39187;48.476;8.310;2023-03-19T05:21:08;3.93;;;2.40;;
53299;SDS011;39187;48.476;8.310;2023-03-19T05:23:36;3.70;;;3.00;;
53299;SDS011;39187;48.476;8.310;2023-03-19T05:26:01;2.07;;;1.97;;
53299;SDS011;39187;48.476;8.310;2023-03-19T05:28:27;2.90;;;2.40;;
53299;SDS011;39187;48.476;8.310;2023-03-19T05:30:53;4.60;;;2.80;;
53299;SDS011;39187;48.476;8.310;2023-03-19T05:33:18;2.80;;;2.57;;
53299;SDS011;39187;48.476;8.310;2023-03-19T05:35:44;4.70;;;3.07;;
53299;SDS011;39187;48.476;8.310;2023-03-19T05:38:10;2.73;;;2.63;;
53299;SDS011;39187;48.476;8.310;2023-03-19T05:40:35;2.50;;;2.40;;
53299;SDS011;39187;48.476;8.310;2023-03-19T05:43:01;2.97;;;2.77;;
53299;SDS011;39187;48.476;8.310;2023-03-19T05:45:27;2.50;;;2.40;;
53299;SDS011;39187;48.476;8.310;2023-03-19T05:47:52;3.00;;;2.20;;
53299;SDS011;39187;48.476;8.310;2023-03-19T05:50:18;2.87;;;2.23;;
53299;SDS011;39187;48.476;8.310;2023-03-19T05:52:44;3.10;;;2.80;;
53299;SDS011;39187;48.476;8.310;2023-03-19T05:55:09;2.87;;;2.33;;
53299;SDS011;39187;48.476;8.310;2023-03-19T05:57:35;2.70;;;2.60;;
53299;SDS011;39187;48.476;8.310;2023-03-19T06:00:00;2.37;;;2.27;;
53299;SDS011;39187;48.476;8.310;2023-03-19T06:02:26;7.63;;;2.80;;
53299;SDS011;39187;48.476;8.310;2023-03-19T06:04:52;3.83;;;2.70;;
53299;SDS011;39187;48.476;8.310;2023-03-19T06:07:17;18.13;;;2.93;;
53299;SDS011;39187;48.476;8.310;2023-03-19T06:09:43;3.30;;;2.93;;
53299;SDS011;39187;48.476;8.310;2023-03-19T06:12:08;4.27;;;4.00;;
53299;SDS011;39187;48.476;8.310;2023-03-19T06:14:34;3.07;;;2.87;;
53299;SDS011;39187;48.476;8.310;2023-03-19T06:16:59;4.60;;;2.57;;
53299;SDS011;39187;48.476;8.310;2023-03-19T06:19:25;2.47;;;2.37;;
53299;SDS011;39187;48.476;8.310;2023-03-19T06:21:51;4.73;;;3.17;;
53299;SDS011;39187;48.476;8.310;2023-03-19T06:24:16;4.23;;;2.47;;
53299;SDS011;39187;48.476;8.310;2023-03-19T06:26:42;2.47;;;2.27;;
53299;SDS011;39187;48.476;8.310;2023-03-19T06:29:08;2.50;;;2.33;;
53299;SDS011;39187;48.476;8.310;2023-03-19T06:31:34;2.57;;;2.37;;
53299;SDS011;39187;48.476;8.310;2023-03-19T06:33:59;3.20;;;2.60;;
53299;SDS011;39187;48.476;8.310;2023-03-19T06:36:25;6.60;;;3.30;;
53299;SDS011;39187;48.476;8.310;2023-03-19T06:38:51;2.70;;;2.60;;
53299;SDS011;39187;48.476;8.310;2023-03-19T06:41:16;3.73;;;2.50;;
53299;SDS011;39187;48.476;8.310;2023-03-19T06:43:42;3.53;;;2.00;;
53299;SDS011;39187;48.476;8.310;2023-03-19T06:46:07;2.83;;;2.53;;
53299;SDS011;39187;48.476;8.310;2023-03-19T06:48:34;3.20;;;2.70;;
53299;SDS011;39187;48.476;8.310;2023-03-19T06:51:00;4.93;;;2.83;;
53299;SDS011;39187;48.476;8.310;2023-03-19T06:53:26;3.13;;;2.90;;
53299;SDS011;39187;48.476;8.310;2023-03-19T06:55:52;3.03;;;2.83;;
53299;SDS011;39187;48.476;8.310;2023-03-19T06:58:17;7.33;;;3.00;;
53299;SDS011;39187;48.476;8.310;2023-03-19T07:00:43;7.53;;;2.40;;
53299;SDS011;39187;48.476;8.310;2023-03-19T07:03:08;2.70;;;2.20;;
53299;SDS011;39187;48.476;8.310;2023-03-19T07:05:34;3.03;;;2.10;;
53299;SDS011;39187;48.476;8.310;2023-03-19T07:08:00;2.33;;;2.23;;
53299;SDS011;39187;48.476;8.310;2023-03-19T07:10:26;3.93;;;2.80;;
53299;SDS011;39187;48.476;8.310;2023-03-19T07:12:52;2.77;;;2.60;;
53299;SDS011;39187;48.476;8.310;2023-03-19T07:15:17;3.43;;;3.13;;
53299;SDS011;39187;48.476;8.310;2023-03-19T07:17:45;2.60;;;2.50;;
53299;SDS011;39187;48.476;8.310;2023-03-19T07:20:12;2.30;;;2.10;;
53299;SDS011;39187;48.476;8.310;2023-03-19T07:22:38;2.87;;;2.63;;
53299;SDS011;39187;48.476;8.310;2023-03-19T07:25:04;3.00;;;2.90;;
53299;SDS011;39187;48.476;8.310;2023-03-19T07:27:31;3.60;;;2.73;;
53299;SDS011;39187;48.476;8.310;2023-03-19T07:29:56;3.17;;;3.03;;
53299;SDS011;39187;48.476;8.310;2023-03-19T07:32:22;8.97;;;2.90;;
53299;SDS011;39187;48.476;8.310;2023-03-19T07:34:48;2.70;;;2.50;;
53299;SDS011;39187;48.476;8.310;2023-03-19T07:37:13;10.80;;;3.03;;
53299;SDS011;39187;48.476;8.310;2023-03-19T07:39:39;3.53;;;2.37;;
53299;SDS011;39187;48.476;8.310;2023-03-19T07:42:05;3.37;;;2.73;;
53299;SDS011;39187;48.476;8.310;2023-03-19T07:44:30;3.37;;;2.57;;
53299;SDS011;39187;48.476;8.310;2023-03-19T07:46:56;4.00;;;3.60;;
53299;SDS011;39187;48.476;8.310;2023-03-19T07:49:22;3.20;;;3.00;;
53299;SDS011;39187;48.476;8.310;2023-03-19T07:51:48;2.53;;;2.30;;
53299;SDS011;39187;48.476;8.310;2023-03-19T07:54:13;6.90;;;2.20;;
53299;SDS011;39187;48.476;8.310;2023-03-19T07:56:39;4.27;;;2.77;;
53299;SDS011;39187;48.476;8.310;2023-03-19T07:59:05;2.83;;;2.63;;
53299;SDS011;39187;48.476;8.310;2023-03-19T08:01:31;5.00;;;2.60;;
53299;SDS011;39187;48.476;8.310;2023-03-19T08:03:56;6.27;;;3.60;;
53299;SDS011;39187;48.476;8.310;2023-03-19T08:06:22;2.90;;;2.70;;
53299;SDS011;39187;48.476;8.310;2023-03-19T08:08:48;5.13;;;3.07;;
53299;SDS011;39187;48.476;8.310;2023-03-19T08:11:13;2.77;;;2.57;;
53299;SDS011;39187;48.476;8.310;2023-03-19T08:13:40;3.83;;;2.47;;
53299;SDS011;39187;48.476;8.310;2023-03-19T08:16:06;3.43;;;2.97;;
53299;SDS011;39187;48.476;8.310;2023-03-19T08:18:32;4.83;;;2.80;;
53299;SDS011;39187;48.476;8.310;2023-03-19T08:20:58;2.83;;;2.73;;
53299;SDS011;39187;48.476;8.310;2023-03-19T08:23:24;4.13;;;2.70;;
53299;SDS011;39187;48.476;8.310;2023-03-19T08:25:51;2.50;;;2.40;;
53299;SDS011;39187;48.476;8.310;2023-03-19T08:28:18;2.80;;;2.70;;
53299;SDS011;39187;48.476;8.310;2023-03-19T08:30:44;4.03;;;3.23;;
53299;SDS011;39187;48.476;8.310;2023-03-19T08:33:10;3.10;;;2.80;;
53299;SDS011;39187;48.476;8.310;2023-03-19T08:35:35;3.40;;;3.20;;
53299;SDS011;39187;48.476;8.310;2023-03-19T08:38:01;2.73;;;2.53;;
53299;SDS011;39187;48.476;8.310;2023-03-19T08:40:27;2.70;;;2.50;;
53299;SDS011;39187;48.476;8.310;2023-03-19T08:42:53;5.60;;;2.80;;
53299;SDS011;39187;48.476;8.310;2023-03-19T08:45:20;3.47;;;2.23;;
53299;SDS011;39187;48.476;8.310;2023-03-19T08:47:46;4.47;;;2.07;;
53299;SDS011;39187;48.476;8.310;2023-03-19T08:50:12;2.40;;;2.20;;
53299;SDS011;39187;48.476;8.310;2023-03-19T08:52:38;6.10;;;2.60;;
53299;SDS011;39187;48.476;8.310;2023-03-19T08:55:04;2.57;;;2.37;;
53299;SDS011;39187;48.476;8.310;2023-03-19T08:57:30;4.13;;;2.53;;
53299;SDS011;39187;48.476;8.310;2023-03-19T08:59:56;2.47;;;2.27;;
53299;SDS011;39187;48.476;8.310;2023-03-19T09:02:22;3.47;;;2.33;;
53299;SDS011;39187;48.476;8.310;2023-03-19T09:04:47;3.33;;;2.00;;
53299;SDS011;39187;48.476;8.310;2023-03-19T09:07:13;4.03;;;2.50;;
53299;SDS011;39187;48.476;8.310;2023-03-19T09:09:40;2.30;;;2.20;;
53299;SDS011;39187;48.476;8.310;2023-03-19T09:12:07;3.43;;;2.13;;
53299;SDS011;39187;48.476;8.310;2023-03-19T09:14:35;2.57;;;2.37;;
53299;SDS011;39187;48.476;8.310;2023-03-19T09:17:00;2.23;;;2.03;;
53299;SDS011;39187;48.476;8.310;2023-03-19T09:19:27;3.80;;;2.43;;
53299;SDS011;39187;48.476;8.310;2023-03-19T09:21:52;2.00;;;1.80;;
53299;SDS011;39187;48.476;8.310;2023-03-19T09:24:18;5.00;;;2.47;;
53299;SDS011;39187;48.476;8.310;2023-03-19T09:26:44;4.50;;;2.37;;
53299;SDS011;39187;48.476;8.310;2023-03-19T09:29:10;2.50;;;2.40;;
53299;SDS011;39187;48.476;8.310;2023-03-19T09:31:36;3.10;;;2.33;;
53299;SDS011;39187;48.476;8.310;2023-03-19T09:34:02;2.67;;;2.47;;
53299;SDS011;39187;48.476;8.310;2023-03-19T09:36:28;2.37;;;2.17;;
53299;SDS011;39187;48.476;8.310;2023-03-19T09:38:53;6.23;;;2.57;;
53299;SDS011;39187;48.476;8.310;2023-03-19T09:44:40;3.43;;;2.30;;
53299;SDS011;39187;48.476;8.310;2023-03-19T09:49:59;2.70;;;1.83;;
53299;SDS011;39187;48.476;8.310;2023-03-19T09:52:40;2.90;;;2.70;;
53299;SDS011;39187;48.476;8.310;2023-03-19T09:57:49;2.77;;;2.50;;
53299;SDS011;39187;48.476;8.310;2023-03-19T10:03:00;2.20;;;2.10;;
53299;SDS011;39187;48.476;8.310;2023-03-19T10:05:48;3.23;;;2.50;;
53299;SDS011;39187;48.476;8.310;2023-03-19T10:11:08;4.27;;;2.53;;
53299;SDS011;39187;48.476;8.310;2023-03-19T10:13:57;3.03;;;2.83;;
53299;SDS011;39187;48.476;8.310;2023-03-19T10:16:48;3.80;;;2.30;;
53299;SDS011;39187;48.476;8.310;2023-03-19T10:19:21;2.00;;;1.90;;
53299;SDS011;39187;48.476;8.310;2023-03-19T10:22:02;1.93;;;1.83;;
53299;SDS011;39187;48.476;8.310;2023-03-19T10:24:36;2.87;;;2.57;;
53299;SDS011;39187;48.476;8.310;2023-03-19T10:27:10;2.57;;;1.90;;
53299;SDS011;39187;48.476;8.310;2023-03-19T10:29:39;2.50;;;1.97;;
53299;SDS011;39187;48.476;8.310;2023-03-19T10:34:49;3.53;;;2.67;;
53299;SDS011;39187;48.476;8.310;2023-03-19T10:39:49;3.40;;;2.03;;
53299;SDS011;39187;48.476;8.310;2023-03-19T10:47:52;4.50;;;2.70;;
53299;SDS011;39187;48.476;8.310;2023-03-19T10:50:21;2.70;;;2.50;;
53299;SDS011;39187;48.476;8.310;2023-03-19T10:52:58;3.03;;;2.30;;
53299;SDS011;39187;48.476;8.310;2023-03-19T10:55:55;6.07;;;5.47;;
53299;SDS011;39187;48.476;8.310;2023-03-19T10:58:25;3.20;;;2.53;;
53299;SDS011;39187;48.476;8.310;2023-03-19T11:00:56;2.33;;;2.23;;
53299;SDS011;39187;48.476;8.310;2023-03-19T11:06:32;2.90;;;2.60;;
53299;SDS011;39187;48.476;8.310;2023-03-19T11:14:49;3.83;;;2.47;;
53299;SDS011;39187;48.476;8.310;2023-03-19T11:17:22;2.43;;;2.20;;
53299;SDS011;39187;48.476;8.310;2023-03-19T11:19:55;2.20;;;2.00;;
53299;SDS011;39187;48.476;8.310;2023-03-19T11:22:23;3.47;;;2.30;;
53299;SDS011;39187;48.476;8.310;2023-03-19T11:24:52;3.23;;;2.07;;
53299;SDS011;39187;48.476;8.310;2023-03-19T11:27:25;5.37;;;2.80;;
53299;SDS011;39187;48.476;8.310;2023-03-19T11:29:59;2.30;;;2.20;;
53299;SDS011;39187;48.476;8.310;2023-03-19T11:35:19;2.40;;;2.30;;
53299;SDS011;39187;48.476;8.310;2023-03-19T11:51:48;3.73;;;2.80;;
53299;SDS011;39187;48.476;8.310;2023-03-19T11:54:27;2.10;;;2.00;;
53299;SDS011;39187;48.476;8.310;2023-03-19T11:57:08;3.83;;;1.90;;
53299;SDS011;39187;48.476;8.310;2023-03-19T12:08:30;5.23;;;1.93;;
53299;SDS011;39187;48.476;8.310;2023-03-19T12:21:45;1.63;;;1.53;;
53299;SDS011;39187;48.476;8.310;2023-03-19T12:27:11;1.80;;;1.47;;
53299;SDS011;39187;48.476;8.310;2023-03-19T12:35:32;1.80;;;1.70;;
53299;SDS011;39187;48.476;8.310;2023-03-19T12:38:04;4.47;;;1.87;;
53299;SDS011;39187;48.476;8.310;2023-03-19T12:43:25;1.70;;;1.60;;
53299;SDS011;39187;48.476;8.310;2023-03-19T12:46:13;3.83;;;1.43;;
53299;SDS011;39187;48.476;8.310;2023-03-19T12:48:47;1.40;;;1.30;;
53299;SDS011;39187;48.476;8.310;2023-03-19T12:51:16;1.40;;;1.30;;
53299;SDS011;39187;48.476;8.310;2023-03-19T12:53:52;2.10;;;2.00;;
53299;SDS011;39187;48.476;8.310;2023-03-19T12:56:33;1.77;;;1.47;;
53299;SDS011;39187;48.476;8.310;2023-03-19T13:01:43;2.50;;;1.47;;
53299;SDS011;39187;48.476;8.310;2023-03-19T13:06:52;1.17;;;1.00;;
53299;SDS011;39187;48.476;8.310;2023-03-19T13:09:37;4.50;;;1.00;;
53299;SDS011;39187;48.476;8.310;2023-03-19T13:12:11;1.67;;;1.07;;
53299;SDS011;39187;48.476;8.310;2023-03-19T13:15:45;0.90;;;0.90;;
53299;SDS011;39187;48.476;8.310;2023-03-19T13:23:50;1.27;;;1.23;;
53299;SDS011;39187;48.476;8.310;2023-03-19T13:26:29;1.10;;;1.10;;
53299;SDS011;39187;48.476;8.310;2023-03-19T13:28:59;2.10;;;1.17;;
53299;SDS011;39187;48.476;8.310;2023-03-19T13:31:34;1.50;;;1.40;;
53299;SDS011;39187;48.476;8.310;2023-03-19T13:34:06;1.20;;;1.20;;
53299;SDS011;39187;48.476;8.310;2023-03-19T13:36:42;2.07;;;0.83;;
53299;SDS011;39187;48.476;8.310;2023-03-19T13:39:15;0.93;;;0.83;;
53299;SDS011;39187;48.476;8.310;2023-03-19T13:44:57;2.17;;;0.90;;
53299;SDS011;39187;48.476;8.310;2023-03-19T13:47:35;1.77;;;0.90;;
53299;SDS011;39187;48.476;8.310;2023-03-19T13:52:50;3.63;;;1.90;;
53299;SDS011;39187;48.476;8.310;2023-03-19T13:55:43;1.70;;;1.60;;
53299;SDS011;39187;48.476;8.310;2023-03-19T13:58:19;1.33;;;1.23;;
53299;SDS011;39187;48.476;8.310;2023-03-19T14:03:51;0.97;;;0.90;;
53299;SDS011;39187;48.476;8.310;2023-03-19T14:06:54;1.10;;;1.10;;
53299;SDS011;39187;48.476;8.310;2023-03-19T14:14:45;1.17;;;1.10;;
53299;SDS011;39187;48.476;8.310;2023-03-19T14:17:13;1.00;;;0.90;;
53299;SDS011;39187;48.476;8.310;2023-03-19T14:19:40;1.03;;;1.03;;
53299;SDS011;39187;48.476;8.310;2023-03-19T14:22:08;1.30;;;1.20;;
53299;SDS011;39187;48.476;8.310;2023-03-19T14:25:12;1.07;;;1.07;;
53299;SDS011;39187;48.476;8.310;2023-03-19T14:27:49;0.80;;;0.80;;
53299;SDS011;39187;48.476;8.310;2023-03-19T14:30:30;0.70;;;0.70;;
53299;SDS011;39187;48.476;8.310;2023-03-19T14:33:02;1.03;;;0.70;;
53299;SDS011;39187;48.476;8.310;2023-03-19T14:35:33;0.87;;;0.80;;
53299;SDS011;39187;48.476;8.310;2023-03-19T14:38:03;0.70;;;0.70;;
53299;SDS011;39187;48.476;8.310;2023-03-19T14:40:42;2.20;;;0.87;;
53299;SDS011;39187;48.476;8.310;2023-03-19T14:46:16;1.10;;;1.00;;
53299;SDS011;39187;48.476;8.310;2023-03-19T14:57:11;0.83;;;0.83;;
53299;SDS011;39187;48.476;8.310;2023-03-19T14:59:41;0.90;;;0.90;;
53299;SDS011;39187;48.476;8.310;2023-03-19T15:04:51;1.30;;;1.20;;
53299;SDS011;39187;48.476;8.310;2023-03-19T15:07:20;3.40;;;1.37;;
53299;SDS011;39187;48.476;8.310;2023-03-19T15:09:53;2.20;;;1.37;;
53299;SDS011;39187;48.476;8.310;2023-03-19T15:17:38;1.10;;;1.10;;
53299;SDS011;39187;48.476;8.310;2023-03-19T15:20:22;2.70;;;1.13;;
53299;SDS011;39187;48.476;8.310;2023-03-19T15:22:52;10.53;;;1.47;;
53299;SDS011;39187;48.476;8.310;2023-03-19T15:25:19;1.73;;;1.47;;
53299;SDS011;39187;48.476;8.310;2023-03-19T15:27:45;1.50;;;1.27;;
53299;SDS011;39187;48.476;8.310;2023-03-19T15:30:27;1.43;;;1.20;;
53299;SDS011;39187;48.476;8.310;2023-03-19T15:32:53;2.03;;;1.13;;
53299;SDS011;39187;48.476;8.310;2023-03-19T15:35:19;1.60;;;1.50;;
53299;SDS011;39187;48.476;8.310;2023-03-19T15:37:49;5.60;;;1.27;;
53299;SDS011;39187;48.476;8.310;2023-03-19T15:40:18;1.90;;;1.33;;
53299;SDS011;39187;48.476;8.310;2023-03-19T15:42:47;2.13;;;1.20;;
53299;SDS011;39187;48.476;8.310;2023-03-19T15:45:19;1.53;;;1.43;;
53299;SDS011;39187;48.476;8.310;2023-03-19T15:47:56;1.30;;;1.30;;
53299;SDS011;39187;48.476;8.310;2023-03-19T15:50:45;1.97;;;1.87;;
53299;SDS011;39187;48.476;8.310;2023-03-19T15:53:16;1.60;;;1.50;;
53299;SDS011;39187;48.476;8.310;2023-03-19T15:55:47;1.47;;;1.37;;
53299;SDS011;39187;48.476;8.310;2023-03-19T15:58:15;1.40;;;1.30;;
53299;SDS011;39187;48.476;8.310;2023-03-19T16:00:45;2.60;;;1.20;;
53299;SDS011;39187;48.476;8.310;2023-03-19T16:03:15;1.10;;;1.10;;
53299;SDS011;39187;48.476;8.310;2023-03-19T16:05:43;0.70;;;0.70;;
53299;SDS011;39187;48.476;8.310;2023-03-19T16:08:22;1.30;;;1.20;;
53299;SDS011;39187;48.476;8.310;2023-03-19T16:10:50;1.00;;;1.00;;
53299;SDS011;39187;48.476;8.310;2023-03-19T16:15:53;1.87;;;1.43;;
53299;SDS011;39187;48.476;8.310;2023-03-19T16:18:50;1.53;;;1.43;;
53299;SDS011;39187;48.476;8.310;2023-03-19T16:21:27;1.00;;;0.90;;
53299;SDS011;39187;48.476;8.310;2023-03-19T16:26:58;0.93;;;0.90;;
53299;SDS011;39187;48.476;8.310;2023-03-19T16:29:28;1.00;;;1.00;;
53299;SDS011;39187;48.476;8.310;2023-03-19T16:32:06;1.33;;;1.23;;
53299;SDS011;39187;48.476;8.310;2023-03-19T16:34:42;1.30;;;1.20;;
53299;SDS011;39187;48.476;8.310;2023-03-19T16:42:37;1.80;;;1.67;;
53299;SDS011;39187;48.476;8.310;2023-03-19T16:47:52;1.67;;;1.30;;
53299;SDS011;39187;48.476;8.310;2023-03-19T16:50:20;1.43;;;1.30;;
53299;SDS011;39187;48.476;8.310;2023-03-19T16:52:47;2.97;;;1.40;;
53299;SDS011;39187;48.476;8.310;2023-03-19T16:55:20;1.13;;;1.10;;
53299;SDS011;39187;48.476;8.310;2023-03-19T17:00:36;3.47;;;3.17;;
53299;SDS011;39187;48.476;8.310;2023-03-19T17:03:02;1.70;;;1.50;;
53299;SDS011;39187;48.476;8.310;2023-03-19T17:05:28;1.60;;;1.50;;
53299;SDS011;39187;48.476;8.310;2023-03-19T17:07:54;1.70;;;1.60;;
53299;SDS011;39187;48.476;8.310;2023-03-19T17:10:20;3.00;;;1.60;;
53299;SDS011;39187;48.476;8.310;2023-03-19T17:12:48;4.83;;;1.60;;
53299;SDS011;39187;48.476;8.310;2023-03-19T17:15:23;3.90;;;1.47;;
53299;SDS011;39187;48.476;8.310;2023-03-19T17:17:50;1.30;;;1.30;;
53299;SDS011;39187;48.476;8.310;2023-03-19T17:20:22;2.10;;;2.00;;
53299;SDS011;39187;48.476;8.310;2023-03-19T17:22:55;2.20;;;2.10;;
53299;SDS011;39187;48.476;8.310;2023-03-19T17:25:21;3.87;;;2.30;;
53299;SDS011;39187;48.476;8.310;2023-03-19T17:27:47;2.40;;;2.30;;